sensor_id;sensor_type;location;lat;lon;timestamp;pressure;altitude;pressure_sealevel;temperature;humidity
7614;BME280;3848;42.016;23.098;2024-02-23T00:01:09;97053.72;;;8.22;100.00
7614;BME280;3848;42.016;23.098;2024-02-23T00:03:38;97057.09;;;8.29;100.00
7614;BME280;3848;42.016;23.098;2024-02-23T00:06:05;97063.88;;;8.39;100.00
7614;BME280;3848;42.016;23.098;2024-02-23T00:08:34;97032.63;;;8.26;100.00
7614;BME280;3848;42.016;23.098;2024-02-23T00:11:01;97044.47;;;8.42;100.00
7614;BME280;3848;42.016;23.098;2024-02-23T00:13:28;97052.91;;;8.41;100.00
7614;BME280;3848;42.016;23.098;2024-02-23T00:15:55;97034.34;;;8.42;100.00
7614;BME280;3848;42.016;23.098;2024-02-23T00:18:22;97027.59;;;8.41;100.00
7614;BME280;3848;42.016;23.098;2024-02-23T00:20:50;97019.13;;;8.45;100.00
7614;BME280;3848;42.016;23.098;2024-02-23T00:23:17;97025.03;;;8.47;100.00
7614;BME280;3848;42.016;23.098;2024-02-23T00:25:44;97025.03;;;8.46;100.00
7614;BME280;3848;42.016;23.098;2024-02-23T00:28:11;97024.19;;;8.54;100.00
7614;BME280;3848;42.016;23.098;2024-02-23T00:30:38;97011.53;;;8.56;100.00
7614;BME280;3848;42.016;23.098;2024-02-23T00:33:05;97012.38;;;8.58;100.00
7614;BME280;3848;42.016;23.098;2024-02-23T00:35:32;97019.06;;;8.70;100.00
7614;BME280;3848;42.016;23.098;2024-02-23T00:38:01;97008.94;;;8.73;100.00
7614;BME280;3848;42.016;23.098;2024-02-23T00:40:28;97009.81;;;8.66;100.00
7614;BME280;3848;42.016;23.098;2024-02-23T00:42:55;97004.75;;;8.61;100.00
7614;BME280;3848;42.016;23.098;2024-02-23T00:45:23;97000.56;;;8.57;100.00
7614;BME280;3848;42.016;23.098;2024-02-23T00:47:50;96998.88;;;8.50;100.00
7614;BME280;3848;42.016;23.098;2024-02-23T00:50:17;97011.53;;;8.47;100.00
7614;BME280;3848;42.016;23.098;2024-02-23T00:52:44;97003.94;;;8.45;100.00
7614;BME280;3848;42.016;23.098;2024-02-23T00:55:13;97002.28;;;8.35;100.00
7614;BME280;3848;42.016;23.098;2024-02-23T00:57:40;96995.50;;;8.25;100.00
7614;BME280;3848;42.016;23.098;2024-02-23T01:00:07;96999.75;;;8.14;100.00
7614;BME280;3848;42.016;23.098;2024-02-23T01:02:35;97005.63;;;8.07;100.00
7614;BME280;3848;42.016;23.098;2024-02-23T01:05:03;97004.78;;;8.02;100.00
7614;BME280;3848;42.016;23.098;2024-02-23T01:07:30;97001.44;;;7.98;100.00
7614;BME280;3848;42.016;23.098;2024-02-23T01:09:57;96998.06;;;7.93;100.00
7614;BME280;3848;42.016;23.098;2024-02-23T01:12:27;96993.00;;;7.93;100.00
7614;BME280;3848;42.016;23.098;2024-02-23T01:14:54;96982.88;;;7.75;100.00
7614;BME280;3848;42.016;23.098;2024-02-23T01:17:21;96996.34;;;7.89;100.00
7614;BME280;3848;42.016;23.098;2024-02-23T01:19:48;96998.06;;;7.93;100.00
7614;BME280;3848;42.016;23.098;2024-02-23T01:22:16;96987.94;;;7.91;100.00
7614;BME280;3848;42.016;23.098;2024-02-23T01:24:43;96991.28;;;7.90;100.00
7614;BME280;3848;42.016;23.098;2024-02-23T01:27:10;96990.44;;;7.85;100.00
7614;BME280;3848;42.016;23.098;2024-02-23T01:29:38;96989.59;;;7.88;100.00
7614;BME280;3848;42.016;23.098;2024-02-23T01:32:05;96988.75;;;7.87;100.00
7614;BME280;3848;42.016;23.098;2024-02-23T01:34:32;96987.09;;;7.92;100.00
7614;BME280;3848;42.016;23.098;2024-02-23T01:37:00;96978.66;;;7.97;100.00
7614;BME280;3848;42.016;23.098;2024-02-23T01:39:28;96973.59;;;7.95;100.00
7614;BME280;3848;42.016;23.098;2024-02-23T01:41:55;96982.84;;;8.22;100.00
7614;BME280;3848;42.016;23.098;2024-02-23T01:44:22;96992.13;;;8.41;100.00
7614;BME280;3848;42.016;23.098;2024-02-23T01:46:50;96987.88;;;8.57;100.00
7614;BME280;3848;42.016;23.098;2024-02-23T01:49:18;96986.97;;;8.73;100.00
7614;BME280;3848;42.016;23.098;2024-02-23T01:51:45;96985.28;;;8.81;100.00
7614;BME280;3848;42.016;23.098;2024-02-23T01:54:12;96982.72;;;8.86;100.00
7614;BME280;3848;42.016;23.098;2024-02-23T01:56:39;96970.88;;;8.96;100.00
7614;BME280;3848;42.016;23.098;2024-02-23T01:59:06;96970.81;;;9.08;100.00
7614;BME280;3848;42.016;23.098;2024-02-23T02:01:33;96982.59;;;9.10;100.00
7614;BME280;3848;42.016;23.098;2024-02-23T02:04:01;96975.00;;;9.10;100.00
7614;BME280;3848;42.016;23.098;2024-02-23T02:06:28;96973.31;;;9.12;100.00
7614;BME280;3848;42.016;23.098;2024-02-23T02:08:55;96969.06;;;9.19;100.00
7614;BME280;3848;42.016;23.098;2024-02-23T02:11:22;96976.69;;;9.18;100.00
7614;BME280;3848;42.016;23.098;2024-02-23T02:13:49;96971.63;;;9.18;100.00
7614;BME280;3848;42.016;23.098;2024-02-23T02:16:16;96969.06;;;9.16;100.00
7614;BME280;3848;42.016;23.098;2024-02-23T02:18:43;96957.25;;;9.18;100.00
7614;BME280;3848;42.016;23.098;2024-02-23T02:21:13;96942.88;;;9.15;100.00
7614;BME280;3848;42.016;23.098;2024-02-23T02:23:40;96937.00;;;9.09;100.00
7614;BME280;3848;42.016;23.098;2024-02-23T02:26:07;96955.56;;;9.11;100.00
7614;BME280;3848;42.016;23.098;2024-02-23T02:28:34;96956.41;;;9.11;100.00
7614;BME280;3848;42.016;23.098;2024-02-23T02:31:01;96956.41;;;9.18;100.00
7614;BME280;3848;42.016;23.098;2024-02-23T02:33:28;96964.84;;;9.16;100.00
7614;BME280;3848;42.016;23.098;2024-02-23T02:35:55;96956.41;;;9.11;100.00
7614;BME280;3848;42.016;23.098;2024-02-23T02:38:24;96967.38;;;9.13;100.00
7614;BME280;3848;42.016;23.098;2024-02-23T02:40:51;96947.97;;;9.12;100.00
7614;BME280;3848;42.016;23.098;2024-02-23T02:43:18;96961.47;;;9.11;100.00
7614;BME280;3848;42.016;23.098;2024-02-23T02:45:44;96954.72;;;9.13;100.00
7614;BME280;3848;42.016;23.098;2024-02-23T02:48:11;96949.66;;;9.10;100.00
7614;BME280;3848;42.016;23.098;2024-02-23T02:50:38;96943.75;;;9.08;100.00
7614;BME280;3848;42.016;23.098;2024-02-23T02:53:05;96942.88;;;9.12;100.00
7614;BME280;3848;42.016;23.098;2024-02-23T02:55:34;96943.75;;;9.11;100.00
7614;BME280;3848;42.016;23.098;2024-02-23T02:58:01;96942.94;;;9.03;100.00
7614;BME280;3848;42.016;23.098;2024-02-23T03:00:28;96929.50;;;8.88;100.00
7614;BME280;3848;42.016;23.098;2024-02-23T03:02:56;96937.91;;;8.94;100.00
7614;BME280;3848;42.016;23.098;2024-02-23T03:05:23;96938.78;;;8.98;100.00
7614;BME280;3848;42.016;23.098;2024-02-23T03:07:50;96931.16;;;8.93;100.00
7614;BME280;3848;42.016;23.098;2024-02-23T03:10:17;96941.28;;;8.93;100.00
7614;BME280;3848;42.016;23.098;2024-02-23T03:12:45;96942.13;;;8.95;100.00
7614;BME280;3848;42.016;23.098;2024-02-23T03:15:12;96942.97;;;9.00;100.00
7614;BME280;3848;42.016;23.098;2024-02-23T03:17:39;96951.41;;;9.02;100.00
7614;BME280;3848;42.016;23.098;2024-02-23T03:20:07;96950.56;;;9.00;100.00
7614;BME280;3848;42.016;23.098;2024-02-23T03:22:34;96953.09;;;9.00;100.00
7614;BME280;3848;42.016;23.098;2024-02-23T03:25:01;96954.78;;;9.01;100.00
7614;BME280;3848;42.016;23.098;2024-02-23T03:27:34;96951.41;;;9.02;100.00
7614;BME280;3848;42.016;23.098;2024-02-23T03:30:03;96953.94;;;9.02;100.00
7614;BME280;3848;42.016;23.098;2024-02-23T03:32:31;96953.06;;;9.06;100.00
7614;BME280;3848;42.016;23.098;2024-02-23T03:35:02;96953.09;;;9.03;100.00
7614;BME280;3848;42.016;23.098;2024-02-23T03:37:29;96950.56;;;9.00;100.00
7614;BME280;3848;42.016;23.098;2024-02-23T03:39:56;96943.00;;;8.88;100.00
7614;BME280;3848;42.016;23.098;2024-02-23T03:42:25;96950.63;;;8.85;100.00
7614;BME280;3848;42.016;23.098;2024-02-23T03:44:52;96954.09;;;8.63;100.00
7614;BME280;3848;42.016;23.098;2024-02-23T03:47:20;96955.81;;;8.51;100.00
7614;BME280;3848;42.016;23.098;2024-02-23T03:49:47;96949.97;;;8.37;100.00
7614;BME280;3848;42.016;23.098;2024-02-23T03:52:14;96958.38;;;8.24;100.00
7614;BME280;3848;42.016;23.098;2024-02-23T03:54:41;96948.28;;;8.03;100.00
7614;BME280;3848;42.016;23.098;2024-02-23T03:57:08;96950.84;;;7.92;100.00
7614;BME280;3848;42.016;23.098;2024-02-23T03:59:36;96946.59;;;7.86;100.00
7614;BME280;3848;42.016;23.098;2024-02-23T04:02:03;96965.16;;;7.79;100.00
7614;BME280;3848;42.016;23.098;2024-02-23T04:04:33;96965.16;;;7.70;100.00
7614;BME280;3848;42.016;23.098;2024-02-23T04:07:00;96954.19;;;7.59;100.00
7614;BME280;3848;42.016;23.098;2024-02-23T04:09:26;96963.47;;;7.52;100.00
7614;BME280;3848;42.016;23.098;2024-02-23T04:11:53;96944.91;;;7.49;100.00
7614;BME280;3848;42.016;23.098;2024-02-23T04:14:20;96949.13;;;7.42;100.00
7614;BME280;3848;42.016;23.098;2024-02-23T04:16:47;96934.78;;;7.26;100.00
7614;BME280;3848;42.016;23.098;2024-02-23T04:19:13;96958.34;;;7.23;100.00
7614;BME280;3848;42.016;23.098;2024-02-23T04:21:42;96965.09;;;7.24;100.00
7614;BME280;3848;42.016;23.098;2024-02-23T04:24:09;96959.19;;;7.13;100.00
7614;BME280;3848;42.016;23.098;2024-02-23T04:26:35;96966.75;;;7.10;100.00
7614;BME280;3848;42.016;23.098;2024-02-23T04:29:02;96970.09;;;7.06;100.00
7614;BME280;3848;42.016;23.098;2024-02-23T04:31:29;96975.13;;;7.03;100.00
7614;BME280;3848;42.016;23.098;2024-02-23T04:33:56;96971.75;;;6.98;100.00
7614;BME280;3848;42.016;23.098;2024-02-23T04:36:23;96985.22;;;6.94;100.00
7614;BME280;3848;42.016;23.098;2024-02-23T04:38:52;96983.50;;;6.87;100.00
7614;BME280;3848;42.016;23.098;2024-02-23T04:41:19;96986.00;;;6.82;100.00
7614;BME280;3848;42.016;23.098;2024-02-23T04:43:47;96984.31;;;6.78;100.00
7614;BME280;3848;42.016;23.098;2024-02-23T04:46:14;96982.63;;;6.74;100.00
7614;BME280;3848;42.016;23.098;2024-02-23T04:48:40;96969.13;;;6.67;100.00
7614;BME280;3848;42.016;23.098;2024-02-23T04:51:08;96964.84;;;6.53;100.00
7614;BME280;3848;42.016;23.098;2024-02-23T04:53:36;96930.19;;;6.24;100.00
7614;BME280;3848;42.016;23.098;2024-02-23T04:56:05;96954.66;;;6.39;100.00
7614;BME280;3848;42.016;23.098;2024-02-23T04:58:33;96973.25;;;6.49;100.00
7614;BME280;3848;42.016;23.098;2024-02-23T05:01:00;96966.47;;;6.43;100.00
7614;BME280;3848;42.016;23.098;2024-02-23T05:03:28;96967.28;;;6.39;100.00
7614;BME280;3848;42.016;23.098;2024-02-23T05:05:55;96974.84;;;6.33;100.00
7614;BME280;3848;42.016;23.098;2024-02-23T05:08:22;96974.00;;;6.32;100.00
7614;BME280;3848;42.016;23.098;2024-02-23T05:10:50;96924.25;;;6.11;100.00
7614;BME280;3848;42.016;23.098;2024-02-23T05:13:19;96955.41;;;6.20;100.00
7614;BME280;3848;42.016;23.098;2024-02-23T05:15:46;96954.53;;;6.15;100.00
7614;BME280;3848;42.016;23.098;2024-02-23T05:18:13;96946.94;;;6.08;100.00
7614;BME280;3848;42.016;23.098;2024-02-23T05:20:40;96946.94;;;6.07;100.00
7614;BME280;3848;42.016;23.098;2024-02-23T05:23:07;96949.38;;;6.02;100.00
7614;BME280;3848;42.016;23.098;2024-02-23T05:25:34;96927.41;;;5.83;100.00
7614;BME280;3848;42.016;23.098;2024-02-23T05:28:01;96939.06;;;5.73;100.00
7614;BME280;3848;42.016;23.098;2024-02-23T05:30:29;96943.31;;;5.79;100.00
7614;BME280;3848;42.016;23.098;2024-02-23T05:32:57;96951.81;;;5.89;100.00
7614;BME280;3848;42.016;23.098;2024-02-23T05:35:25;96951.03;;;5.93;100.00
7614;BME280;3848;42.016;23.098;2024-02-23T05:37:52;96956.09;;;5.97;100.00
7614;BME280;3848;42.016;23.098;2024-02-23T05:40:19;96973.00;;;6.07;100.00
7614;BME280;3848;42.016;23.098;2024-02-23T05:42:46;96977.22;;;6.10;100.00
7614;BME280;3848;42.016;23.098;2024-02-23T05:45:13;96966.28;;;6.09;100.00
7614;BME280;3848;42.016;23.098;2024-02-23T05:47:42;96966.31;;;6.19;100.00
7614;BME280;3848;42.016;23.098;2024-02-23T05:50:09;96951.16;;;6.11;100.00
7614;BME280;3848;42.016;23.098;2024-02-23T05:52:36;96964.66;;;6.24;100.00
7614;BME280;3848;42.016;23.098;2024-02-23T05:55:05;96970.63;;;6.32;100.00
7614;BME280;3848;42.016;23.098;2024-02-23T05:57:32;96958.88;;;6.37;100.00
7614;BME280;3848;42.016;23.098;2024-02-23T05:59:59;96963.88;;;6.31;100.00
7614;BME280;3848;42.016;23.098;2024-02-23T06:02:26;96969.81;;;6.40;100.00
7614;BME280;3848;42.016;23.098;2024-02-23T06:04:54;96975.75;;;6.46;100.00
7614;BME280;3848;42.016;23.098;2024-02-23T06:07:21;96974.91;;;6.48;100.00
7614;BME280;3848;42.016;23.098;2024-02-23T06:09:54;96930.22;;;6.26;100.00
7614;BME280;3848;42.016;23.098;2024-02-23T06:12:21;96915.03;;;6.18;100.00
7614;BME280;3848;42.016;23.098;2024-02-23T06:14:48;96988.41;;;6.56;100.00
7614;BME280;3848;42.016;23.098;2024-02-23T06:17:15;96983.38;;;6.62;100.00
7614;BME280;3848;42.016;23.098;2024-02-23T06:19:42;96991.81;;;6.64;100.00
7614;BME280;3848;42.016;23.098;2024-02-23T06:22:10;96996.06;;;6.67;100.00
7614;BME280;3848;42.016;23.098;2024-02-23T06:24:38;97000.28;;;6.69;100.00
7614;BME280;3848;42.016;23.098;2024-02-23T06:27:05;96992.69;;;6.69;100.00
7614;BME280;3848;42.016;23.098;2024-02-23T06:29:32;96993.56;;;6.75;100.00
7614;BME280;3848;42.016;23.098;2024-02-23T06:31:59;96986.81;;;6.75;100.00
7614;BME280;3848;42.016;23.098;2024-02-23T06:34:28;96986.00;;;6.81;100.00
7614;BME280;3848;42.016;23.098;2024-02-23T06:36:55;97000.31;;;6.82;100.00
7614;BME280;3848;42.016;23.098;2024-02-23T06:39:24;96995.31;;;6.91;100.00
7614;BME280;3848;42.016;23.098;2024-02-23T06:41:51;96989.44;;;6.95;100.00
7614;BME280;3848;42.016;23.098;2024-02-23T06:44:17;96997.84;;;6.95;100.00
7614;BME280;3848;42.016;23.098;2024-02-23T06:46:44;96994.56;;;7.13;100.00
7614;BME280;3848;42.016;23.098;2024-02-23T06:49:11;96998.78;;;7.20;100.00
7614;BME280;3848;42.016;23.098;2024-02-23T06:51:38;97000.47;;;7.27;100.00
7614;BME280;3848;42.016;23.098;2024-02-23T06:54:06;97007.25;;;7.38;100.00
7614;BME280;3848;42.016;23.098;2024-02-23T06:56:35;97010.66;;;7.50;100.00
7614;BME280;3848;42.016;23.098;2024-02-23T06:59:02;97003.94;;;7.66;100.00
7614;BME280;3848;42.016;23.098;2024-02-23T07:01:29;97004.78;;;7.73;100.00
7614;BME280;3848;42.016;23.098;2024-02-23T07:03:56;97001.41;;;7.78;100.00
7614;BME280;3848;42.016;23.098;2024-02-23T07:06:24;97003.94;;;7.90;100.00
7614;BME280;3848;42.016;23.098;2024-02-23T07:08:51;97008.16;;;8.05;100.00
7614;BME280;3848;42.016;23.098;2024-02-23T07:11:18;97004.78;;;8.03;100.00
7614;BME280;3848;42.016;23.098;2024-02-23T07:13:46;97017.47;;;8.14;100.00
7614;BME280;3848;42.016;23.098;2024-02-23T07:16:13;96987.09;;;8.18;100.00
7614;BME280;3848;42.016;23.098;2024-02-23T07:18:40;97002.28;;;8.37;100.00
7614;BME280;3848;42.016;23.098;2024-02-23T07:21:08;97014.91;;;8.50;100.00
7614;BME280;3848;42.016;23.098;2024-02-23T07:23:35;97013.19;;;8.63;100.00
7614;BME280;3848;42.016;23.098;2024-02-23T07:26:02;97013.19;;;8.75;100.00
7614;BME280;3848;42.016;23.098;2024-02-23T07:28:29;97010.59;;;8.83;100.00
7614;BME280;3848;42.016;23.098;2024-02-23T07:30:57;97010.56;;;9.00;100.00
7614;BME280;3848;42.016;23.098;2024-02-23T07:33:24;97001.13;;;9.26;100.00
7614;BME280;3848;42.016;23.098;2024-02-23T07:35:51;97001.06;;;9.34;100.00
7614;BME280;3848;42.016;23.098;2024-02-23T07:38:18;96997.63;;;9.47;100.00
7614;BME280;3848;42.016;23.098;2024-02-23T07:40:45;97000.06;;;9.64;100.00
7614;BME280;3848;42.016;23.098;2024-02-23T07:43:12;96994.88;;;9.84;100.00
7614;BME280;3848;42.016;23.098;2024-02-23T07:45:39;96991.97;;;10.29;100.00
7614;BME280;3848;42.016;23.098;2024-02-23T07:48:07;96987.44;;;10.59;100.00
7614;BME280;3848;42.016;23.098;2024-02-23T07:50:35;96982.13;;;10.80;100.00
7614;BME280;3848;42.016;23.098;2024-02-23T07:53:02;96956.66;;;10.86;100.00
7614;BME280;3848;42.016;23.098;2024-02-23T07:55:29;96979.97;;;11.17;100.00
7614;BME280;3848;42.016;23.098;2024-02-23T07:57:56;96991.81;;;11.20;100.00
7614;BME280;3848;42.016;23.098;2024-02-23T08:00:26;96981.53;;;11.29;100.00
7614;BME280;3848;42.016;23.098;2024-02-23T08:02:53;96971.31;;;11.32;100.00
7614;BME280;3848;42.016;23.098;2024-02-23T08:05:23;96976.41;;;11.30;100.00
7614;BME280;3848;42.016;23.098;2024-02-23T08:07:50;96975.50;;;11.36;100.00
7614;BME280;3848;42.016;23.098;2024-02-23T08:10:17;96979.59;;;11.46;100.00
7614;BME280;3848;42.016;23.098;2024-02-23T08:12:44;96975.06;;;11.65;100.00
7614;BME280;3848;42.016;23.098;2024-02-23T08:15:12;96976.56;;;11.80;100.00
7614;BME280;3848;42.016;23.098;2024-02-23T08:22:01;96977.78;;;12.11;100.00
7614;BME280;3848;42.016;23.098;2024-02-23T08:24:28;96974.00;;;12.34;100.00
7614;BME280;3848;42.016;23.098;2024-02-23T08:26:55;96977.97;;;12.50;100.00
7614;BME280;3848;42.016;23.098;2024-02-23T08:29:22;96963.09;;;12.72;100.00
7614;BME280;3848;42.016;23.098;2024-02-23T08:31:49;96976.44;;;12.85;100.00
7614;BME280;3848;42.016;23.098;2024-02-23T08:34:16;96938.31;;;12.78;100.00
7614;BME280;3848;42.016;23.098;2024-02-23T08:36:44;96964.00;;;13.12;100.00
7614;BME280;3848;42.016;23.098;2024-02-23T08:39:12;96964.69;;;13.21;100.00
7614;BME280;3848;42.016;23.098;2024-02-23T08:41:39;96971.50;;;13.20;100.00
7614;BME280;3848;42.016;23.098;2024-02-23T08:44:06;96959.38;;;13.30;100.00
7614;BME280;3848;42.016;23.098;2024-02-23T08:46:33;96954.13;;;13.37;100.00
7614;BME280;3848;42.016;23.098;2024-02-23T08:49:00;96958.06;;;13.51;100.00
7614;BME280;3848;42.016;23.098;2024-02-23T08:51:27;96948.63;;;13.56;100.00
7614;BME280;3848;42.016;23.098;2024-02-23T08:53:54;96962.66;;;13.73;100.00
7614;BME280;3848;42.016;23.098;2024-02-23T08:56:24;96957.03;;;13.95;100.00
7614;BME280;3848;42.016;23.098;2024-02-23T08:58:51;96956.06;;;14.00;100.00
7614;BME280;3848;42.016;23.098;2024-02-23T09:01:18;96947.03;;;14.21;100.00
7614;BME280;3848;42.016;23.098;2024-02-23T09:03:45;96954.00;;;14.49;100.00
7614;BME280;3848;42.016;23.098;2024-02-23T09:06:12;96949.63;;;14.52;100.00
7614;BME280;3848;42.016;23.098;2024-02-23T09:08:40;96938.78;;;14.43;100.00
7614;BME280;3848;42.016;23.098;2024-02-23T09:11:07;96958.09;;;14.54;100.00
7614;BME280;3848;42.016;23.098;2024-02-23T09:13:38;96944.53;;;14.52;100.00
7614;BME280;3848;42.016;23.098;2024-02-23T09:16:07;96942.63;;;14.60;100.00
7614;BME280;3848;42.016;23.098;2024-02-23T09:18:34;96947.44;;;14.71;100.00
7614;BME280;3848;42.016;23.098;2024-02-23T09:21:02;96944.44;;;14.55;100.00
7614;BME280;3848;42.016;23.098;2024-02-23T09:23:29;96953.25;;;14.45;100.00
7614;BME280;3848;42.016;23.098;2024-02-23T09:25:56;96942.84;;;14.51;100.00
7614;BME280;3848;42.016;23.098;2024-02-23T09:28:23;96906.88;;;14.57;100.00
7614;BME280;3848;42.016;23.098;2024-02-23T09:30:51;96942.41;;;14.98;99.52
7614;BME280;3848;42.016;23.098;2024-02-23T09:33:18;96940.16;;;15.16;94.40
7614;BME280;3848;42.016;23.098;2024-02-23T09:35:45;96937.16;;;15.32;95.12
7614;BME280;3848;42.016;23.098;2024-02-23T09:38:12;96936.22;;;15.34;94.44
7614;BME280;3848;42.016;23.098;2024-02-23T09:40:39;96920.19;;;15.55;91.94
7614;BME280;3848;42.016;23.098;2024-02-23T09:43:08;96931.47;;;15.78;89.00
7614;BME280;3848;42.016;23.098;2024-02-23T09:45:37;96921.25;;;16.29;83.03
7614;BME280;3848;42.016;23.098;2024-02-23T09:48:07;96923.19;;;16.96;77.13
7614;BME280;3848;42.016;23.098;2024-02-23T09:50:37;96917.31;;;17.59;71.17
7614;BME280;3848;42.016;23.098;2024-02-23T09:53:04;96912.28;;;18.41;68.12
7614;BME280;3848;42.016;23.098;2024-02-23T09:55:34;96909.91;;;18.56;64.23
7614;BME280;3848;42.016;23.098;2024-02-23T09:58:02;96902.78;;;18.63;64.10
7614;BME280;3848;42.016;23.098;2024-02-23T10:00:30;96901.22;;;18.98;63.33
7614;BME280;3848;42.016;23.098;2024-02-23T10:02:58;96893.75;;;19.30;62.51
7614;BME280;3848;42.016;23.098;2024-02-23T10:05:30;96887.75;;;19.29;60.00
7614;BME280;3848;42.016;23.098;2024-02-23T10:07:57;96892.06;;;19.29;61.38
7614;BME280;3848;42.016;23.098;2024-02-23T10:10:29;96896.38;;;19.28;60.28
7614;BME280;3848;42.016;23.098;2024-02-23T10:12:57;96871.81;;;19.21;58.16
7614;BME280;3848;42.016;23.098;2024-02-23T10:15:24;96868.22;;;19.61;57.65
7614;BME280;3848;42.016;23.098;2024-02-23T10:17:51;96875.56;;;19.33;57.01
7614;BME280;3848;42.016;23.098;2024-02-23T10:20:19;96837.31;;;18.87;59.08
7614;BME280;3848;42.016;23.098;2024-02-23T10:22:48;96863.94;;;19.24;58.73
7614;BME280;3848;42.016;23.098;2024-02-23T10:25:18;96868.13;;;19.08;57.96
7614;BME280;3848;42.016;23.098;2024-02-23T10:27:45;96827.53;;;18.77;58.07
7614;BME280;3848;42.016;23.098;2024-02-23T10:30:13;96864.09;;;19.21;57.75
7614;BME280;3848;42.016;23.098;2024-02-23T10:32:41;96868.97;;;19.27;57.15
7614;BME280;3848;42.016;23.098;2024-02-23T10:35:13;96854.66;;;19.58;55.89
7614;BME280;3848;42.016;23.098;2024-02-23T10:37:42;96848.50;;;20.12;54.39
7614;BME280;3848;42.016;23.098;2024-02-23T10:40:13;96857.06;;;19.78;54.66
7614;BME280;3848;42.016;23.098;2024-02-23T10:42:43;96849.69;;;19.17;54.75
7614;BME280;3848;42.016;23.098;2024-02-23T10:45:14;96844.34;;;19.58;53.62
7614;BME280;3848;42.016;23.098;2024-02-23T10:47:42;96818.84;;;20.21;55.14
7614;BME280;3848;42.016;23.098;2024-02-23T10:50:10;96834.41;;;20.52;54.02
7614;BME280;3848;42.016;23.098;2024-02-23T10:52:40;96824.75;;;20.23;53.41
7614;BME280;3848;42.016;23.098;2024-02-23T10:55:14;96791.44;;;19.49;56.48
7614;BME280;3848;42.016;23.098;2024-02-23T10:57:42;96816.59;;;20.30;52.65
7614;BME280;3848;42.016;23.098;2024-02-23T11:00:10;96821.03;;;20.93;53.40
7614;BME280;3848;42.016;23.098;2024-02-23T11:02:41;96821.28;;;20.39;52.26
7614;BME280;3848;42.016;23.098;2024-02-23T11:05:10;96812.59;;;20.58;50.53
7614;BME280;3848;42.016;23.098;2024-02-23T11:07:39;96809.84;;;20.61;50.23
7614;BME280;3848;42.016;23.098;2024-02-23T11:10:07;96808.13;;;20.77;49.46
7614;BME280;3848;42.016;23.098;2024-02-23T11:12:36;96814.09;;;20.29;49.90
7614;BME280;3848;42.016;23.098;2024-02-23T11:15:04;96810.25;;;20.53;49.47
7614;BME280;3848;42.016;23.098;2024-02-23T11:17:32;96802.03;;;20.62;49.62
7614;BME280;3848;42.016;23.098;2024-02-23T11:20:02;96804.72;;;21.24;47.42
7614;BME280;3848;42.016;23.098;2024-02-23T11:22:31;96798.78;;;21.06;47.10
7614;BME280;3848;42.016;23.098;2024-02-23T11:25:00;96789.56;;;20.86;47.32
7614;BME280;3848;42.016;23.098;2024-02-23T11:27:31;96802.44;;;21.02;47.74
7614;BME280;3848;42.016;23.098;2024-02-23T11:30:04;96785.22;;;20.71;48.78
7614;BME280;3848;42.016;23.098;2024-02-23T11:32:37;96788.38;;;21.08;48.05
7614;BME280;3848;42.016;23.098;2024-02-23T11:35:07;96785.56;;;21.42;47.23
7614;BME280;3848;42.016;23.098;2024-02-23T11:37:44;96791.00;;;21.22;47.53
7614;BME280;3848;42.016;23.098;2024-02-23T11:40:12;96770.19;;;21.09;47.45
7614;BME280;3848;42.016;23.098;2024-02-23T11:42:41;96776.13;;;21.27;48.22
7614;BME280;3848;42.016;23.098;2024-02-23T11:45:10;96765.69;;;21.58;47.70
7614;BME280;3848;42.016;23.098;2024-02-23T11:47:38;96766.63;;;20.96;48.44
7614;BME280;3848;42.016;23.098;2024-02-23T11:50:08;96772.69;;;20.48;48.05
7614;BME280;3848;42.016;23.098;2024-02-23T11:52:35;96759.22;;;20.58;48.55
7614;BME280;3848;42.016;23.098;2024-02-23T11:55:03;96768.22;;;20.83;48.75
7614;BME280;3848;42.016;23.098;2024-02-23T11:57:32;96760.38;;;20.53;48.97
7614;BME280;3848;42.016;23.098;2024-02-23T12:00:00;96762.06;;;20.69;48.87
7614;BME280;3848;42.016;23.098;2024-02-23T12:02:30;96760.81;;;21.22;48.72
7614;BME280;3848;42.016;23.098;2024-02-23T12:04:57;96751.19;;;21.10;46.59
7614;BME280;3848;42.016;23.098;2024-02-23T12:07:24;96758.78;;;20.82;47.44
7614;BME280;3848;42.016;23.098;2024-02-23T12:09:53;96755.31;;;20.83;48.03
7614;BME280;3848;42.016;23.098;2024-02-23T12:12:20;96755.81;;;21.19;47.30
7614;BME280;3848;42.016;23.098;2024-02-23T12:14:48;96747.78;;;21.25;47.18
7614;BME280;3848;42.016;23.098;2024-02-23T12:17:15;96754.53;;;20.81;47.49
7614;BME280;3848;42.016;23.098;2024-02-23T12:19:43;96747.97;;;20.59;48.45
7614;BME280;3848;42.016;23.098;2024-02-23T12:22:11;96746.72;;;20.66;49.02
7614;BME280;3848;42.016;23.098;2024-02-23T12:24:38;96744.97;;;20.51;48.60
7614;BME280;3848;42.016;23.098;2024-02-23T12:27:07;96733.84;;;20.33;49.29
7614;BME280;3848;42.016;23.098;2024-02-23T12:29:34;96742.91;;;20.42;49.95
7614;BME280;3848;42.016;23.098;2024-02-23T12:32:04;96742.16;;;20.72;48.93
7614;BME280;3848;42.016;23.098;2024-02-23T12:34:32;96712.59;;;20.13;48.34
7614;BME280;3848;42.016;23.098;2024-02-23T12:37:02;96747.38;;;20.05;49.14
7614;BME280;3848;42.016;23.098;2024-02-23T12:39:29;96735.97;;;20.09;49.86
7614;BME280;3848;42.016;23.098;2024-02-23T12:41:56;96734.16;;;20.12;49.55
7614;BME280;3848;42.016;23.098;2024-02-23T12:44:23;96727.97;;;19.98;50.01
7614;BME280;3848;42.016;23.098;2024-02-23T12:46:50;96735.19;;;19.92;50.56
7614;BME280;3848;42.016;23.098;2024-02-23T12:49:17;96709.97;;;19.81;50.55
7614;BME280;3848;42.016;23.098;2024-02-23T12:51:45;96729.28;;;19.90;50.22
7614;BME280;3848;42.016;23.098;2024-02-23T12:54:13;96718.00;;;19.75;50.38
7614;BME280;3848;42.016;23.098;2024-02-23T12:56:40;96723.78;;;19.80;50.71
7614;BME280;3848;42.016;23.098;2024-02-23T12:59:08;96737.69;;;20.26;49.95
7614;BME280;3848;42.016;23.098;2024-02-23T13:01:35;96690.53;;;19.74;49.71
7614;BME280;3848;42.016;23.098;2024-02-23T13:04:04;96733.88;;;19.67;49.94
7614;BME280;3848;42.016;23.098;2024-02-23T13:06:37;96733.78;;;19.69;50.60
7614;BME280;3848;42.016;23.098;2024-02-23T13:09:04;96729.28;;;19.90;49.40
7614;BME280;3848;42.016;23.098;2024-02-23T13:11:34;96724.22;;;19.71;49.81
7614;BME280;3848;42.016;23.098;2024-02-23T13:14:03;96727.72;;;19.70;50.32
7614;BME280;3848;42.016;23.098;2024-02-23T13:16:30;96726.28;;;19.82;50.16